DAAT/TMR METAR and TAF weather

Enter ICAO airport designator
Station Type Date Time Source
DAAT METAR 2022/06/30 14:00 UTC NOAA

DAAT 301400Z 12008G18KT 060V140 CAVOK 35/// Q1020


Station Type Date Time Source
DAAT Decoded METAR 2022/06/30 14:00 UTC NOAA

Tamanrasset / Aguenna, Algeria (DAAT) 22-49N 005-28E
Jun 30, 2022 - 10:00 AM EDT / 2022.06.30 1400 UTC
Wind: from the ESE (120 degrees) at 9 MPH (8 KT) gusting to 21 MPH (18 KT) (direction variable):0
Visibility: greater than 7 mile(s):0
Temperature: 95 F (35 C)
Pressure (altimeter): 30.12 in. Hg (1020 hPa)
ob: DAAT 301400Z 12008G18KT 060V140 CAVOK 35/// Q1020
cycle: 14

Station Type Date Time Source
DAAT TAF 2022/06/30 12:33 UTC NOAA

TAF DAAT 301100Z 3012/0112 12014KT 9999 FEW046
TEMPO 3012/3015 12015G30KT
TEMPO 3014/3020 FEW040CB SCT046TCU

Example: see airport list